sensor_id;sensor_type;location;lat;lon;timestamp;P1;durP1;ratioP1;P2;durP2;ratioP2
76115;SDS011;64847;45.778;12.802;2024-01-10T00:01:16;5.80;;;4.57;;
76115;SDS011;64847;45.778;12.802;2024-01-10T00:03:41;5.13;;;4.30;;
76115;SDS011;64847;45.778;12.802;2024-01-10T00:06:07;4.33;;;4.00;;
76115;SDS011;64847;45.778;12.802;2024-01-10T00:08:32;4.87;;;4.30;;
76115;SDS011;64847;45.778;12.802;2024-01-10T00:10:57;4.70;;;4.20;;
76115;SDS011;64847;45.778;12.802;2024-01-10T00:13:23;4.67;;;4.17;;
76115;SDS011;64847;45.778;12.802;2024-01-10T00:15:48;7.17;;;4.80;;
76115;SDS011;64847;45.778;12.802;2024-01-10T00:18:14;5.10;;;4.60;;
76115;SDS011;64847;45.778;12.802;2024-01-10T00:20:39;5.13;;;4.27;;
76115;SDS011;64847;45.778;12.802;2024-01-10T00:23:05;4.67;;;4.17;;
76115;SDS011;64847;45.778;12.802;2024-01-10T00:25:31;6.23;;;4.77;;
76115;SDS011;64847;45.778;12.802;2024-01-10T00:27:57;5.10;;;4.60;;
76115;SDS011;64847;45.778;12.802;2024-01-10T00:30:23;4.97;;;4.23;;
76115;SDS011;64847;45.778;12.802;2024-01-10T00:32:48;4.67;;;4.23;;
76115;SDS011;64847;45.778;12.802;2024-01-10T00:35:13;6.87;;;4.93;;
76115;SDS011;64847;45.778;12.802;2024-01-10T00:37:39;5.43;;;4.63;;
76115;SDS011;64847;45.778;12.802;2024-01-10T00:40:05;5.37;;;4.20;;
76115;SDS011;64847;45.778;12.802;2024-01-10T00:42:31;5.10;;;4.60;;
76115;SDS011;64847;45.778;12.802;2024-01-10T00:44:57;5.27;;;4.47;;
76115;SDS011;64847;45.778;12.802;2024-01-10T00:47:22;4.47;;;4.07;;
76115;SDS011;64847;45.778;12.802;2024-01-10T00:49:48;5.03;;;4.53;;
76115;SDS011;64847;45.778;12.802;2024-01-10T00:52:13;6.23;;;4.40;;
76115;SDS011;64847;45.778;12.802;2024-01-10T00:54:38;5.80;;;4.40;;
76115;SDS011;64847;45.778;12.802;2024-01-10T00:57:04;5.07;;;4.57;;
76115;SDS011;64847;45.778;12.802;2024-01-10T00:59:29;5.07;;;4.37;;
76115;SDS011;64847;45.778;12.802;2024-01-10T01:01:55;4.57;;;4.00;;
76115;SDS011;64847;45.778;12.802;2024-01-10T01:04:20;4.27;;;3.87;;
76115;SDS011;64847;45.778;12.802;2024-01-10T01:06:46;5.10;;;4.20;;
76115;SDS011;64847;45.778;12.802;2024-01-10T01:09:11;5.37;;;4.43;;
76115;SDS011;64847;45.778;12.802;2024-01-10T01:11:38;4.50;;;3.93;;
76115;SDS011;64847;45.778;12.802;2024-01-10T01:14:04;4.40;;;3.93;;
76115;SDS011;64847;45.778;12.802;2024-01-10T01:16:29;4.60;;;4.20;;
76115;SDS011;64847;45.778;12.802;2024-01-10T01:18:55;4.23;;;3.90;;
76115;SDS011;64847;45.778;12.802;2024-01-10T01:21:20;4.93;;;4.17;;
76115;SDS011;64847;45.778;12.802;2024-01-10T01:23:46;4.40;;;4.00;;
76115;SDS011;64847;45.778;12.802;2024-01-10T01:26:11;4.63;;;3.87;;
76115;SDS011;64847;45.778;12.802;2024-01-10T01:28:38;4.33;;;3.50;;
76115;SDS011;64847;45.778;12.802;2024-01-10T01:31:04;3.93;;;3.53;;
76115;SDS011;64847;45.778;12.802;2024-01-10T01:33:29;4.40;;;3.90;;
76115;SDS011;64847;45.778;12.802;2024-01-10T01:35:55;4.33;;;3.93;;
76115;SDS011;64847;45.778;12.802;2024-01-10T01:38:20;5.37;;;4.20;;
76115;SDS011;64847;45.778;12.802;2024-01-10T01:40:46;4.87;;;4.27;;
76115;SDS011;64847;45.778;12.802;2024-01-10T01:43:22;4.00;;;3.60;;
76115;SDS011;64847;45.778;12.802;2024-01-10T01:45:52;5.83;;;5.20;;
76115;SDS011;64847;45.778;12.802;2024-01-10T01:48:19;5.10;;;4.60;;
76115;SDS011;64847;45.778;12.802;2024-01-10T01:50:45;5.77;;;4.30;;
76115;SDS011;64847;45.778;12.802;2024-01-10T01:53:13;5.93;;;5.13;;
76115;SDS011;64847;45.778;12.802;2024-01-10T01:55:39;5.70;;;4.50;;
76115;SDS011;64847;45.778;12.802;2024-01-10T01:58:06;5.17;;;4.23;;
76115;SDS011;64847;45.778;12.802;2024-01-10T02:00:33;5.70;;;4.83;;
76115;SDS011;64847;45.778;12.802;2024-01-10T02:02:59;4.60;;;4.20;;
76115;SDS011;64847;45.778;12.802;2024-01-10T02:05:25;4.40;;;4.00;;
76115;SDS011;64847;45.778;12.802;2024-01-10T02:07:51;5.67;;;4.20;;
76115;SDS011;64847;45.778;12.802;2024-01-10T02:10:16;5.17;;;4.40;;
76115;SDS011;64847;45.778;12.802;2024-01-10T02:12:42;4.27;;;3.87;;
76115;SDS011;64847;45.778;12.802;2024-01-10T02:15:08;4.40;;;3.97;;
76115;SDS011;64847;45.778;12.802;2024-01-10T02:17:34;4.07;;;3.60;;
76115;SDS011;64847;45.778;12.802;2024-01-10T02:20:12;4.40;;;4.00;;
76115;SDS011;64847;45.778;12.802;2024-01-10T02:22:39;5.40;;;4.07;;
76115;SDS011;64847;45.778;12.802;2024-01-10T02:25:05;5.90;;;3.97;;
76115;SDS011;64847;45.778;12.802;2024-01-10T02:27:33;4.20;;;3.67;;
76115;SDS011;64847;45.778;12.802;2024-01-10T02:29:59;4.13;;;3.60;;
76115;SDS011;64847;45.778;12.802;2024-01-10T02:32:27;5.57;;;4.30;;
76115;SDS011;64847;45.778;12.802;2024-01-10T02:34:52;4.23;;;3.83;;
76115;SDS011;64847;45.778;12.802;2024-01-10T02:37:18;4.17;;;3.77;;
76115;SDS011;64847;45.778;12.802;2024-01-10T02:39:43;4.70;;;4.20;;
76115;SDS011;64847;45.778;12.802;2024-01-10T02:42:08;4.87;;;4.23;;
76115;SDS011;64847;45.778;12.802;2024-01-10T02:44:34;3.73;;;3.43;;
76115;SDS011;64847;45.778;12.802;2024-01-10T02:46:59;4.67;;;4.20;;
76115;SDS011;64847;45.778;12.802;2024-01-10T02:49:25;5.00;;;4.17;;
76115;SDS011;64847;45.778;12.802;2024-01-10T02:51:50;4.67;;;4.27;;
76115;SDS011;64847;45.778;12.802;2024-01-10T02:54:15;4.37;;;3.87;;
76115;SDS011;64847;45.778;12.802;2024-01-10T02:56:48;6.53;;;3.73;;
76115;SDS011;64847;45.778;12.802;2024-01-10T02:59:13;5.27;;;4.20;;
76115;SDS011;64847;45.778;12.802;2024-01-10T03:01:39;4.43;;;4.03;;
76115;SDS011;64847;45.778;12.802;2024-01-10T03:04:04;5.33;;;4.77;;
76115;SDS011;64847;45.778;12.802;2024-01-10T03:06:29;4.83;;;4.10;;
76115;SDS011;64847;45.778;12.802;2024-01-10T03:08:56;5.70;;;4.63;;
76115;SDS011;64847;45.778;12.802;2024-01-10T03:11:21;4.43;;;4.03;;
76115;SDS011;64847;45.778;12.802;2024-01-10T03:13:47;4.73;;;4.23;;
76115;SDS011;64847;45.778;12.802;2024-01-10T03:16:13;4.47;;;4.03;;
76115;SDS011;64847;45.778;12.802;2024-01-10T03:18:39;4.40;;;4.00;;
76115;SDS011;64847;45.778;12.802;2024-01-10T03:21:05;4.33;;;3.90;;
76115;SDS011;64847;45.778;12.802;2024-01-10T03:23:32;5.23;;;4.60;;
76115;SDS011;64847;45.778;12.802;2024-01-10T03:25:57;4.87;;;4.47;;
76115;SDS011;64847;45.778;12.802;2024-01-10T03:28:23;4.33;;;3.93;;
76115;SDS011;64847;45.778;12.802;2024-01-10T03:30:48;5.40;;;4.10;;
76115;SDS011;64847;45.778;12.802;2024-01-10T03:33:14;5.03;;;4.00;;
76115;SDS011;64847;45.778;12.802;2024-01-10T03:35:40;4.33;;;3.73;;
76115;SDS011;64847;45.778;12.802;2024-01-10T03:38:06;4.33;;;3.90;;
76115;SDS011;64847;45.778;12.802;2024-01-10T03:40:31;4.47;;;4.07;;
76115;SDS011;64847;45.778;12.802;2024-01-10T03:42:57;5.07;;;4.53;;
76115;SDS011;64847;45.778;12.802;2024-01-10T03:45:23;5.40;;;4.07;;
76115;SDS011;64847;45.778;12.802;2024-01-10T03:47:49;3.80;;;3.43;;
76115;SDS011;64847;45.778;12.802;2024-01-10T03:50:20;4.57;;;4.07;;
76115;SDS011;64847;45.778;12.802;2024-01-10T03:52:45;4.40;;;3.77;;
76115;SDS011;64847;45.778;12.802;2024-01-10T03:55:11;4.63;;;4.13;;
76115;SDS011;64847;45.778;12.802;2024-01-10T03:57:38;4.20;;;3.80;;
76115;SDS011;64847;45.778;12.802;2024-01-10T04:00:04;4.10;;;3.70;;
76115;SDS011;64847;45.778;12.802;2024-01-10T04:02:32;4.50;;;4.07;;
76115;SDS011;64847;45.778;12.802;2024-01-10T04:04:58;3.50;;;3.20;;
76115;SDS011;64847;45.778;12.802;2024-01-10T04:07:23;4.33;;;3.83;;
76115;SDS011;64847;45.778;12.802;2024-01-10T04:09:50;5.70;;;4.00;;
76115;SDS011;64847;45.778;12.802;2024-01-10T04:12:16;3.67;;;3.37;;
76115;SDS011;64847;45.778;12.802;2024-01-10T04:14:41;4.53;;;3.80;;
76115;SDS011;64847;45.778;12.802;2024-01-10T04:17:06;4.87;;;4.37;;
76115;SDS011;64847;45.778;12.802;2024-01-10T04:19:34;4.47;;;4.00;;
76115;SDS011;64847;45.778;12.802;2024-01-10T04:21:59;5.40;;;4.33;;
76115;SDS011;64847;45.778;12.802;2024-01-10T04:24:25;4.83;;;4.10;;
76115;SDS011;64847;45.778;12.802;2024-01-10T04:26:50;4.50;;;4.10;;
76115;SDS011;64847;45.778;12.802;2024-01-10T04:29:16;3.83;;;3.53;;
76115;SDS011;64847;45.778;12.802;2024-01-10T04:31:41;5.37;;;4.53;;
76115;SDS011;64847;45.778;12.802;2024-01-10T04:34:07;5.37;;;4.30;;
76115;SDS011;64847;45.778;12.802;2024-01-10T04:36:33;4.97;;;4.47;;
76115;SDS011;64847;45.778;12.802;2024-01-10T04:38:58;4.40;;;3.90;;
76115;SDS011;64847;45.778;12.802;2024-01-10T04:41:23;5.60;;;4.70;;
76115;SDS011;64847;45.778;12.802;2024-01-10T04:43:49;4.80;;;4.40;;
76115;SDS011;64847;45.778;12.802;2024-01-10T04:46:14;5.47;;;4.70;;
76115;SDS011;64847;45.778;12.802;2024-01-10T04:48:40;5.90;;;4.47;;
76115;SDS011;64847;45.778;12.802;2024-01-10T04:51:05;5.03;;;4.30;;
76115;SDS011;64847;45.778;12.802;2024-01-10T04:53:31;5.87;;;4.37;;
76115;SDS011;64847;45.778;12.802;2024-01-10T04:55:56;4.30;;;3.77;;
76115;SDS011;64847;45.778;12.802;2024-01-10T04:58:21;4.67;;;3.90;;
76115;SDS011;64847;45.778;12.802;2024-01-10T05:00:47;4.33;;;3.93;;
76115;SDS011;64847;45.778;12.802;2024-01-10T05:03:12;5.90;;;4.20;;
76115;SDS011;64847;45.778;12.802;2024-01-10T05:05:38;4.23;;;3.83;;
76115;SDS011;64847;45.778;12.802;2024-01-10T05:08:04;4.97;;;4.17;;
76115;SDS011;64847;45.778;12.802;2024-01-10T05:10:29;5.30;;;4.53;;
76115;SDS011;64847;45.778;12.802;2024-01-10T05:12:55;6.03;;;4.53;;
76115;SDS011;64847;45.778;12.802;2024-01-10T05:15:20;5.07;;;4.10;;
76115;SDS011;64847;45.778;12.802;2024-01-10T05:17:46;6.17;;;4.20;;
76115;SDS011;64847;45.778;12.802;2024-01-10T05:20:11;4.67;;;4.23;;
76115;SDS011;64847;45.778;12.802;2024-01-10T05:22:39;5.50;;;4.50;;
76115;SDS011;64847;45.778;12.802;2024-01-10T05:25:05;4.97;;;4.40;;
76115;SDS011;64847;45.778;12.802;2024-01-10T05:27:31;5.10;;;4.07;;
76115;SDS011;64847;45.778;12.802;2024-01-10T05:29:56;5.60;;;4.37;;
76115;SDS011;64847;45.778;12.802;2024-01-10T05:32:22;4.60;;;4.20;;
76115;SDS011;64847;45.778;12.802;2024-01-10T05:34:47;4.13;;;3.73;;
76115;SDS011;64847;45.778;12.802;2024-01-10T05:37:13;4.10;;;3.70;;
76115;SDS011;64847;45.778;12.802;2024-01-10T05:39:38;5.20;;;4.60;;
76115;SDS011;64847;45.778;12.802;2024-01-10T05:42:04;5.87;;;3.90;;
76115;SDS011;64847;45.778;12.802;2024-01-10T05:44:30;4.93;;;3.87;;
76115;SDS011;64847;45.778;12.802;2024-01-10T05:46:55;4.70;;;4.27;;
76115;SDS011;64847;45.778;12.802;2024-01-10T05:49:24;4.00;;;3.50;;
76115;SDS011;64847;45.778;12.802;2024-01-10T05:51:50;3.83;;;3.40;;
76115;SDS011;64847;45.778;12.802;2024-01-10T05:54:15;4.30;;;3.90;;
76115;SDS011;64847;45.778;12.802;2024-01-10T05:56:42;4.17;;;3.77;;
76115;SDS011;64847;45.778;12.802;2024-01-10T05:59:08;4.43;;;4.03;;
76115;SDS011;64847;45.778;12.802;2024-01-10T06:01:33;5.00;;;4.43;;
76115;SDS011;64847;45.778;12.802;2024-01-10T06:03:59;5.33;;;3.90;;
76115;SDS011;64847;45.778;12.802;2024-01-10T06:06:24;4.30;;;3.90;;
76115;SDS011;64847;45.778;12.802;2024-01-10T06:08:49;4.43;;;4.03;;
76115;SDS011;64847;45.778;12.802;2024-01-10T06:11:15;4.33;;;3.93;;
76115;SDS011;64847;45.778;12.802;2024-01-10T06:13:40;4.50;;;4.10;;
76115;SDS011;64847;45.778;12.802;2024-01-10T06:16:06;4.70;;;4.20;;
76115;SDS011;64847;45.778;12.802;2024-01-10T06:18:32;4.60;;;4.20;;
76115;SDS011;64847;45.778;12.802;2024-01-10T06:20:57;5.03;;;4.47;;
76115;SDS011;64847;45.778;12.802;2024-01-10T06:23:23;4.50;;;4.10;;
76115;SDS011;64847;45.778;12.802;2024-01-10T06:25:48;4.40;;;4.00;;
76115;SDS011;64847;45.778;12.802;2024-01-10T06:28:14;5.17;;;4.50;;
76115;SDS011;64847;45.778;12.802;2024-01-10T06:30:39;4.83;;;4.33;;
76115;SDS011;64847;45.778;12.802;2024-01-10T06:33:04;5.43;;;4.53;;
76115;SDS011;64847;45.778;12.802;2024-01-10T06:35:31;4.97;;;4.43;;
76115;SDS011;64847;45.778;12.802;2024-01-10T06:37:57;5.83;;;5.23;;
76115;SDS011;64847;45.778;12.802;2024-01-10T06:40:22;4.80;;;4.30;;
76115;SDS011;64847;45.778;12.802;2024-01-10T06:42:49;5.00;;;4.50;;
76115;SDS011;64847;45.778;12.802;2024-01-10T06:45:14;5.70;;;4.77;;
76115;SDS011;64847;45.778;12.802;2024-01-10T06:47:40;6.67;;;5.10;;
76115;SDS011;64847;45.778;12.802;2024-01-10T06:50:05;5.20;;;4.70;;
76115;SDS011;64847;45.778;12.802;2024-01-10T06:52:32;7.23;;;5.27;;
76115;SDS011;64847;45.778;12.802;2024-01-10T06:54:57;5.43;;;4.30;;
76115;SDS011;64847;45.778;12.802;2024-01-10T06:57:23;4.93;;;4.43;;
76115;SDS011;64847;45.778;12.802;2024-01-10T06:59:48;5.73;;;4.43;;
76115;SDS011;64847;45.778;12.802;2024-01-10T07:02:14;4.93;;;4.43;;
76115;SDS011;64847;45.778;12.802;2024-01-10T07:04:40;5.17;;;4.67;;
76115;SDS011;64847;45.778;12.802;2024-01-10T07:07:05;4.90;;;4.40;;
76115;SDS011;64847;45.778;12.802;2024-01-10T07:09:33;5.47;;;4.83;;
76115;SDS011;64847;45.778;12.802;2024-01-10T07:11:58;5.80;;;4.57;;
76115;SDS011;64847;45.778;12.802;2024-01-10T07:14:24;5.60;;;4.33;;
76115;SDS011;64847;45.778;12.802;2024-01-10T07:16:49;5.07;;;4.57;;
76115;SDS011;64847;45.778;12.802;2024-01-10T07:19:15;6.50;;;5.10;;
76115;SDS011;64847;45.778;12.802;2024-01-10T07:21:40;5.17;;;4.50;;
76115;SDS011;64847;45.778;12.802;2024-01-10T07:24:06;5.40;;;4.90;;
76115;SDS011;64847;45.778;12.802;2024-01-10T07:26:33;6.10;;;5.07;;
76115;SDS011;64847;45.778;12.802;2024-01-10T07:28:59;4.80;;;4.27;;
76115;SDS011;64847;45.778;12.802;2024-01-10T07:31:27;5.27;;;4.43;;
76115;SDS011;64847;45.778;12.802;2024-01-10T07:33:56;4.90;;;4.40;;
76115;SDS011;64847;45.778;12.802;2024-01-10T07:36:23;5.77;;;4.77;;
76115;SDS011;64847;45.778;12.802;2024-01-10T07:38:49;5.00;;;4.50;;
76115;SDS011;64847;45.778;12.802;2024-01-10T07:41:14;4.40;;;4.00;;
76115;SDS011;64847;45.778;12.802;2024-01-10T07:43:40;4.50;;;4.10;;
76115;SDS011;64847;45.778;12.802;2024-01-10T07:46:05;5.00;;;4.50;;
76115;SDS011;64847;45.778;12.802;2024-01-10T07:48:31;5.40;;;4.50;;
76115;SDS011;64847;45.778;12.802;2024-01-10T07:50:56;5.10;;;4.60;;
76115;SDS011;64847;45.778;12.802;2024-01-10T07:53:22;4.70;;;4.30;;
76115;SDS011;64847;45.778;12.802;2024-01-10T07:55:47;5.23;;;4.30;;
76115;SDS011;64847;45.778;12.802;2024-01-10T07:58:13;5.27;;;4.77;;
76115;SDS011;64847;45.778;12.802;2024-01-10T08:00:38;4.60;;;4.03;;
76115;SDS011;64847;45.778;12.802;2024-01-10T08:03:04;4.97;;;4.47;;
76115;SDS011;64847;45.778;12.802;2024-01-10T08:05:29;4.60;;;4.20;;
76115;SDS011;64847;45.778;12.802;2024-01-10T08:07:55;4.40;;;4.00;;
76115;SDS011;64847;45.778;12.802;2024-01-10T08:10:21;4.90;;;4.40;;
76115;SDS011;64847;45.778;12.802;2024-01-10T08:12:46;5.23;;;4.60;;
76115;SDS011;64847;45.778;12.802;2024-01-10T08:15:12;5.27;;;4.77;;
76115;SDS011;64847;45.778;12.802;2024-01-10T08:17:39;6.10;;;4.93;;
76115;SDS011;64847;45.778;12.802;2024-01-10T08:20:05;5.10;;;4.63;;
76115;SDS011;64847;45.778;12.802;2024-01-10T08:22:33;5.47;;;4.63;;
76115;SDS011;64847;45.778;12.802;2024-01-10T08:24:59;5.53;;;5.03;;
76115;SDS011;64847;45.778;12.802;2024-01-10T08:27:25;5.13;;;4.63;;
76115;SDS011;64847;45.778;12.802;2024-01-10T08:29:50;5.30;;;4.80;;
76115;SDS011;64847;45.778;12.802;2024-01-10T08:32:16;5.57;;;5.03;;
76115;SDS011;64847;45.778;12.802;2024-01-10T08:34:43;5.97;;;4.87;;
76115;SDS011;64847;45.778;12.802;2024-01-10T08:37:10;5.53;;;4.93;;
76115;SDS011;64847;45.778;12.802;2024-01-10T08:39:35;5.47;;;4.97;;
76115;SDS011;64847;45.778;12.802;2024-01-10T08:42:01;5.67;;;4.97;;
76115;SDS011;64847;45.778;12.802;2024-01-10T08:44:26;4.93;;;4.43;;
76115;SDS011;64847;45.778;12.802;2024-01-10T08:46:52;6.20;;;4.77;;
76115;SDS011;64847;45.778;12.802;2024-01-10T08:49:18;5.80;;;5.23;;
76115;SDS011;64847;45.778;12.802;2024-01-10T08:51:43;6.33;;;5.50;;
76115;SDS011;64847;45.778;12.802;2024-01-10T08:54:11;5.93;;;5.03;;
76115;SDS011;64847;45.778;12.802;2024-01-10T08:56:41;5.73;;;4.90;;
76115;SDS011;64847;45.778;12.802;2024-01-10T08:59:09;7.00;;;5.37;;
76115;SDS011;64847;45.778;12.802;2024-01-10T09:01:36;5.87;;;5.17;;
76115;SDS011;64847;45.778;12.802;2024-01-10T09:04:03;5.63;;;5.07;;
76115;SDS011;64847;45.778;12.802;2024-01-10T09:06:29;5.63;;;5.10;;
76115;SDS011;64847;45.778;12.802;2024-01-10T09:08:56;6.23;;;5.63;;
76115;SDS011;64847;45.778;12.802;2024-01-10T09:11:21;5.10;;;4.70;;
76115;SDS011;64847;45.778;12.802;2024-01-10T09:13:47;5.70;;;5.10;;
76115;SDS011;64847;45.778;12.802;2024-01-10T09:16:12;5.10;;;4.60;;
76115;SDS011;64847;45.778;12.802;2024-01-10T09:18:37;5.40;;;4.90;;
76115;SDS011;64847;45.778;12.802;2024-01-10T09:21:04;6.00;;;5.23;;
76115;SDS011;64847;45.778;12.802;2024-01-10T09:23:30;4.87;;;4.47;;
76115;SDS011;64847;45.778;12.802;2024-01-10T09:25:56;4.90;;;4.43;;
76115;SDS011;64847;45.778;12.802;2024-01-10T09:28:22;4.53;;;4.13;;
76115;SDS011;64847;45.778;12.802;2024-01-10T09:30:47;5.50;;;5.00;;
76115;SDS011;64847;45.778;12.802;2024-01-10T09:33:13;4.60;;;4.10;;
76115;SDS011;64847;45.778;12.802;2024-01-10T09:35:38;5.10;;;4.60;;
76115;SDS011;64847;45.778;12.802;2024-01-10T09:38:04;4.63;;;4.17;;
76115;SDS011;64847;45.778;12.802;2024-01-10T09:40:29;4.70;;;4.30;;
76115;SDS011;64847;45.778;12.802;2024-01-10T09:42:55;6.73;;;4.67;;
76115;SDS011;64847;45.778;12.802;2024-01-10T09:45:22;4.90;;;4.50;;
76115;SDS011;64847;45.778;12.802;2024-01-10T09:47:52;5.00;;;4.53;;
76115;SDS011;64847;45.778;12.802;2024-01-10T09:50:20;4.80;;;4.37;;
76115;SDS011;64847;45.778;12.802;2024-01-10T09:52:53;5.30;;;4.80;;
76115;SDS011;64847;45.778;12.802;2024-01-10T09:55:20;5.07;;;4.57;;
76115;SDS011;64847;45.778;12.802;2024-01-10T09:57:46;4.57;;;4.17;;
76115;SDS011;64847;45.778;12.802;2024-01-10T10:00:12;5.07;;;4.50;;
76115;SDS011;64847;45.778;12.802;2024-01-10T10:02:40;4.57;;;4.20;;
76115;SDS011;64847;45.778;12.802;2024-01-10T10:05:16;4.93;;;4.53;;
76115;SDS011;64847;45.778;12.802;2024-01-10T10:07:45;5.67;;;4.33;;
76115;SDS011;64847;45.778;12.802;2024-01-10T10:10:13;4.50;;;4.10;;
76115;SDS011;64847;45.778;12.802;2024-01-10T10:12:50;4.70;;;4.30;;
76115;SDS011;64847;45.778;12.802;2024-01-10T10:15:20;4.30;;;4.00;;
76115;SDS011;64847;45.778;12.802;2024-01-10T10:17:47;4.80;;;4.40;;
76115;SDS011;64847;45.778;12.802;2024-01-10T10:20:35;4.80;;;4.40;;
76115;SDS011;64847;45.778;12.802;2024-01-10T10:23:08;4.83;;;4.43;;
76115;SDS011;64847;45.778;12.802;2024-01-10T10:25:45;4.23;;;3.90;;
76115;SDS011;64847;45.778;12.802;2024-01-10T10:28:11;4.30;;;3.90;;
76115;SDS011;64847;45.778;12.802;2024-01-10T10:30:36;4.80;;;4.40;;
76115;SDS011;64847;45.778;12.802;2024-01-10T10:33:02;4.20;;;3.90;;
76115;SDS011;64847;45.778;12.802;2024-01-10T10:35:29;4.50;;;4.10;;
76115;SDS011;64847;45.778;12.802;2024-01-10T10:37:55;3.97;;;3.67;;
76115;SDS011;64847;45.778;12.802;2024-01-10T10:40:21;4.40;;;4.10;;
76115;SDS011;64847;45.778;12.802;2024-01-10T10:42:54;4.40;;;4.10;;
76115;SDS011;64847;45.778;12.802;2024-01-10T10:45:20;4.53;;;4.13;;
76115;SDS011;64847;45.778;12.802;2024-01-10T10:47:50;3.73;;;3.43;;
76115;SDS011;64847;45.778;12.802;2024-01-10T10:50:22;4.30;;;3.90;;
76115;SDS011;64847;45.778;12.802;2024-01-10T10:52:48;3.90;;;3.60;;
76115;SDS011;64847;45.778;12.802;2024-01-10T10:55:14;3.93;;;3.53;;
76115;SDS011;64847;45.778;12.802;2024-01-10T10:57:43;4.07;;;3.77;;
76115;SDS011;64847;45.778;12.802;2024-01-10T11:00:13;4.90;;;4.50;;
76115;SDS011;64847;45.778;12.802;2024-01-10T11:02:43;5.07;;;4.60;;
76115;SDS011;64847;45.778;12.802;2024-01-10T11:05:09;4.60;;;4.20;;
76115;SDS011;64847;45.778;12.802;2024-01-10T11:07:35;4.27;;;3.97;;
76115;SDS011;64847;45.778;12.802;2024-01-10T11:10:02;4.23;;;3.93;;
76115;SDS011;64847;45.778;12.802;2024-01-10T11:12:37;3.80;;;3.50;;
76115;SDS011;64847;45.778;12.802;2024-01-10T11:15:47;4.50;;;4.10;;
76115;SDS011;64847;45.778;12.802;2024-01-10T11:21:45;4.33;;;3.93;;
76115;SDS011;64847;45.778;12.802;2024-01-10T11:24:26;3.37;;;3.17;;
76115;SDS011;64847;45.778;12.802;2024-01-10T11:27:06;3.80;;;3.50;;
76115;SDS011;64847;45.778;12.802;2024-01-10T11:29:32;3.87;;;3.57;;
76115;SDS011;64847;45.778;12.802;2024-01-10T11:31:58;3.47;;;3.23;;
76115;SDS011;64847;45.778;12.802;2024-01-10T11:34:24;4.17;;;3.87;;
76115;SDS011;64847;45.778;12.802;2024-01-10T11:37:10;3.80;;;3.50;;
76115;SDS011;64847;45.778;12.802;2024-01-10T11:39:37;3.90;;;3.60;;
76115;SDS011;64847;45.778;12.802;2024-01-10T11:42:05;4.50;;;4.20;;
76115;SDS011;64847;45.778;12.802;2024-01-10T11:44:34;4.70;;;4.30;;
76115;SDS011;64847;45.778;12.802;2024-01-10T11:47:01;4.00;;;3.70;;
76115;SDS011;64847;45.778;12.802;2024-01-10T11:49:29;3.90;;;3.60;;
76115;SDS011;64847;45.778;12.802;2024-01-10T11:51:55;4.40;;;4.00;;
76115;SDS011;64847;45.778;12.802;2024-01-10T11:54:41;4.70;;;4.27;;
76115;SDS011;64847;45.778;12.802;2024-01-10T11:57:09;4.20;;;3.83;;
76115;SDS011;64847;45.778;12.802;2024-01-10T11:59:41;4.63;;;4.23;;
76115;SDS011;64847;45.778;12.802;2024-01-10T12:02:09;4.93;;;4.53;;
76115;SDS011;64847;45.778;12.802;2024-01-10T12:04:35;4.53;;;4.13;;
76115;SDS011;64847;45.778;12.802;2024-01-10T12:07:05;3.90;;;3.60;;
76115;SDS011;64847;45.778;12.802;2024-01-10T12:09:32;4.47;;;4.13;;
76115;SDS011;64847;45.778;12.802;2024-01-10T12:11:58;4.43;;;4.13;;
76115;SDS011;64847;45.778;12.802;2024-01-10T12:14:23;4.40;;;4.10;;
76115;SDS011;64847;45.778;12.802;2024-01-10T12:16:50;4.10;;;3.80;;
76115;SDS011;64847;45.778;12.802;2024-01-10T12:19:17;5.57;;;5.00;;
76115;SDS011;64847;45.778;12.802;2024-01-10T12:21:42;4.57;;;4.20;;
76115;SDS011;64847;45.778;12.802;2024-01-10T12:24:08;4.80;;;4.40;;
76115;SDS011;64847;45.778;12.802;2024-01-10T12:26:33;4.27;;;3.97;;
76115;SDS011;64847;45.778;12.802;2024-01-10T12:28:59;4.63;;;4.27;;
76115;SDS011;64847;45.778;12.802;2024-01-10T12:31:28;4.40;;;4.03;;
76115;SDS011;64847;45.778;12.802;2024-01-10T12:33:57;4.43;;;4.13;;
76115;SDS011;64847;45.778;12.802;2024-01-10T12:36:24;4.40;;;3.97;;
76115;SDS011;64847;45.778;12.802;2024-01-10T12:38:50;4.43;;;4.10;;
76115;SDS011;64847;45.778;12.802;2024-01-10T12:41:15;4.83;;;4.40;;
76115;SDS011;64847;45.778;12.802;2024-01-10T12:43:42;4.27;;;3.97;;
76115;SDS011;64847;45.778;12.802;2024-01-10T12:46:08;4.57;;;4.17;;
76115;SDS011;64847;45.778;12.802;2024-01-10T12:48:37;4.57;;;4.27;;
76115;SDS011;64847;45.778;12.802;2024-01-10T12:51:06;4.80;;;4.40;;
76115;SDS011;64847;45.778;12.802;2024-01-10T12:53:39;4.63;;;4.23;;
76115;SDS011;64847;45.778;12.802;2024-01-10T12:56:06;4.70;;;4.30;;
76115;SDS011;64847;45.778;12.802;2024-01-10T12:58:33;4.40;;;4.10;;
76115;SDS011;64847;45.778;12.802;2024-01-10T13:01:00;4.37;;;4.07;;
76115;SDS011;64847;45.778;12.802;2024-01-10T13:03:26;4.53;;;4.13;;
76115;SDS011;64847;45.778;12.802;2024-01-10T13:05:51;4.30;;;3.90;;
76115;SDS011;64847;45.778;12.802;2024-01-10T13:08:19;4.20;;;3.90;;
76115;SDS011;64847;45.778;12.802;2024-01-10T13:10:45;4.23;;;3.93;;
76115;SDS011;64847;45.778;12.802;2024-01-10T13:13:12;4.50;;;4.10;;
76115;SDS011;64847;45.778;12.802;2024-01-10T13:15:38;4.10;;;3.80;;
76115;SDS011;64847;45.778;12.802;2024-01-10T13:18:03;4.40;;;4.00;;
76115;SDS011;64847;45.778;12.802;2024-01-10T13:20:29;4.13;;;3.73;;
76115;SDS011;64847;45.778;12.802;2024-01-10T13:22:55;3.97;;;3.67;;
76115;SDS011;64847;45.778;12.802;2024-01-10T13:25:20;4.17;;;3.77;;
76115;SDS011;64847;45.778;12.802;2024-01-10T13:27:49;4.70;;;4.30;;
76115;SDS011;64847;45.778;12.802;2024-01-10T13:30:15;4.30;;;3.97;;
76115;SDS011;64847;45.778;12.802;2024-01-10T13:32:41;4.63;;;4.20;;
76115;SDS011;64847;45.778;12.802;2024-01-10T13:35:07;4.73;;;4.13;;
76115;SDS011;64847;45.778;12.802;2024-01-10T13:37:32;4.80;;;4.30;;
76115;SDS011;64847;45.778;12.802;2024-01-10T13:39:59;4.23;;;3.83;;
76115;SDS011;64847;45.778;12.802;2024-01-10T13:42:24;4.40;;;3.80;;
76115;SDS011;64847;45.778;12.802;2024-01-10T13:44:50;3.90;;;3.57;;
76115;SDS011;64847;45.778;12.802;2024-01-10T13:47:19;4.17;;;3.77;;
76115;SDS011;64847;45.778;12.802;2024-01-10T13:49:46;4.10;;;3.70;;
76115;SDS011;64847;45.778;12.802;2024-01-10T13:52:12;3.53;;;3.23;;
76115;SDS011;64847;45.778;12.802;2024-01-10T13:54:38;3.57;;;3.27;;
76115;SDS011;64847;45.778;12.802;2024-01-10T13:57:03;3.90;;;3.60;;
76115;SDS011;64847;45.778;12.802;2024-01-10T13:59:29;3.67;;;3.37;;
76115;SDS011;64847;45.778;12.802;2024-01-10T14:01:54;4.10;;;3.80;;
76115;SDS011;64847;45.778;12.802;2024-01-10T14:04:20;3.57;;;3.27;;
76115;SDS011;64847;45.778;12.802;2024-01-10T14:06:47;4.07;;;3.77;;
76115;SDS011;64847;45.778;12.802;2024-01-10T14:09:13;4.97;;;3.80;;
76115;SDS011;64847;45.778;12.802;2024-01-10T14:11:38;4.00;;;3.70;;
76115;SDS011;64847;45.778;12.802;2024-01-10T14:14:04;4.27;;;3.93;;
76115;SDS011;64847;45.778;12.802;2024-01-10T14:16:30;3.80;;;3.50;;
76115;SDS011;64847;45.778;12.802;2024-01-10T14:18:55;4.50;;;4.10;;
76115;SDS011;64847;45.778;12.802;2024-01-10T14:21:21;3.53;;;3.23;;
76115;SDS011;64847;45.778;12.802;2024-01-10T14:23:47;3.70;;;3.40;;
76115;SDS011;64847;45.778;12.802;2024-01-10T14:26:13;3.27;;;3.00;;
76115;SDS011;64847;45.778;12.802;2024-01-10T14:28:39;3.53;;;3.23;;
76115;SDS011;64847;45.778;12.802;2024-01-10T14:31:04;4.03;;;3.63;;
76115;SDS011;64847;45.778;12.802;2024-01-10T14:33:30;4.33;;;3.67;;